Time;durP1;ratioP1;P1;durP2;ratioP2;P2;SDS_P1;SDS_P2;PMS_P1;PMS_P2;Temp;Humidity;BMP_temperature;BMP_pressure;BME280_temperature;BME280_humidity;BME280_pressure;Samples;Min_cycle;Max_cycle;Signal;HPM_P1;HPM_P2
2021/08/14 00:00:13;;;;;;;10.27;5.07;;;;;;;;;;8255513;28;20527;-70
2021/08/14 00:04:18;;;;;;;7.60;5.07;;;;;;;;;;8253606;28;20379;-71
2021/08/14 00:08:23;;;;;;;16.27;4.97;;;;;;;;;;8257657;28;20502;-70
2021/08/14 00:12:28;;;;;;;7.15;4.65;;;;;;;;;;8256995;28;20041;-70
2021/08/14 00:16:33;;;;;;;10.95;5.03;;;;;;;;;;8257544;28;20391;-70
2021/08/14 00:20:37;;;;;;;7.03;4.65;;;;;;;;;;8226934;28;20472;-71
2021/08/14 00:24:42;;;;;;;10.40;4.90;;;;;;;;;;8224836;28;20068;-71
2021/08/14 00:28:48;;;;;;;9.20;4.40;;;;;;;;;;8223209;28;20469;-70
2021/08/14 00:32:53;;;;;;;7.10;4.63;;;;;;;;;;8224728;28;20408;-71
2021/08/14 00:36:58;;;;;;;9.25;4.80;;;;;;;;;;8222849;28;20050;-71
2021/08/14 00:41:04;;;;;;;8.60;4.82;;;;;;;;;;8224044;28;20487;-71
2021/08/14 00:45:09;;;;;;;7.57;5.13;;;;;;;;;;8226235;28;20061;-70
2021/08/14 00:49:15;;;;;;;9.35;4.03;;;;;;;;;;8228463;28;20448;-70
2021/08/14 00:53:21;;;;;;;8.32;4.18;;;;;;;;;;8211261;28;20384;-71
2021/08/14 00:57:27;;;;;;;8.57;4.75;;;;;;;;;;8230216;28;20333;-71
2021/08/14 01:01:32;;;;;;;10.13;5.05;;;;;;;;;;8229559;28;20372;-71
2021/08/14 01:05:51;;;;;;;10.07;4.63;;;;;;;;;;8229598;28;20481;-70
2021/08/14 01:09:56;;;;;;;12.15;5.45;;;;;;;;;;8228797;28;20380;-71
2021/08/14 01:14:02;;;;;;;10.00;5.13;;;;;;;;;;8229439;28;20352;-71
2021/08/14 01:18:09;;;;;;;10.48;5.03;;;;;;;;;;8241002;28;20056;-71
2021/08/14 01:22:15;;;;;;;9.00;5.07;;;;;;;;;;8261344;28;20380;-70
2021/08/14 01:26:21;;;;;;;10.60;5.70;;;;;;;;;;8243056;28;20340;-71
2021/08/14 01:30:26;;;;;;;8.57;5.03;;;;;;;;;;8259682;28;20480;-71
2021/08/14 01:34:32;;;;;;;10.68;5.28;;;;;;;;;;8262948;28;20059;-71
2021/08/14 01:38:46;;;;;;;9.98;4.90;;;;;;;;;;8244165;28;20484;-70
2021/08/14 01:42:51;;;;;;;8.10;4.90;;;;;;;;;;8228040;28;20371;-70
2021/08/14 01:46:57;;;;;;;8.23;5.25;;;;;;;;;;8261995;28;20356;-70
2021/08/14 01:51:02;;;;;;;10.98;4.80;;;;;;;;;;8261017;28;20368;-70
2021/08/14 01:55:08;;;;;;;9.05;5.07;;;;;;;;;;8260056;28;20480;-71
2021/08/14 01:59:14;;;;;;;10.60;5.40;;;;;;;;;;8226499;28;20045;-70
2021/08/14 02:03:19;;;;;;;8.10;5.13;;;;;;;;;;8258360;28;20375;-71
2021/08/14 02:07:24;;;;;;;8.70;4.28;;;;;;;;;;8263439;28;20483;-71
2021/08/14 02:11:33;;;;;;;9.43;5.00;;;;;;;;;;8242907;28;20402;-70
2021/08/14 02:15:38;;;;;;;8.20;5.13;;;;;;;;;;8258267;28;20063;-70
2021/08/14 02:19:45;;;;;;;8.43;4.78;;;;;;;;;;8259738;28;20368;-70
2021/08/14 02:23:50;;;;;;;6.50;4.68;;;;;;;;;;8241350;28;20064;-70
2021/08/14 02:27:55;;;;;;;9.57;5.05;;;;;;;;;;8258748;28;20487;-70
2021/08/14 02:32:01;;;;;;;6.53;4.60;;;;;;;;;;8258433;28;20045;-70
2021/08/14 02:36:07;;;;;;;10.13;4.53;;;;;;;;;;8241820;28;20336;-70
2021/08/14 02:40:12;;;;;;;8.00;5.28;;;;;;;;;;8259680;28;20348;-70
2021/08/14 02:44:17;;;;;;;8.48;4.93;;;;;;;;;;8260464;28;20049;-70
2021/08/14 02:48:22;;;;;;;9.05;4.40;;;;;;;;;;8242001;28;20364;-71
2021/08/14 02:52:27;;;;;;;10.30;4.95;;;;;;;;;;8260906;28;20484;-71
2021/08/14 02:56:33;;;;;;;6.40;4.28;;;;;;;;;;8257062;28;20364;-71
2021/08/14 03:00:38;;;;;;;10.55;5.25;;;;;;;;;;8258856;28;20490;-70
2021/08/14 03:04:45;;;;;;;8.93;4.35;;;;;;;;;;8256656;28;20041;-70
2021/08/14 03:08:50;;;;;;;11.80;4.88;;;;;;;;;;8257364;28;20075;-70
2021/08/14 03:12:55;;;;;;;11.00;4.65;;;;;;;;;;8257478;28;20363;-71
2021/08/14 03:17:00;;;;;;;14.93;4.90;;;;;;;;;;8240385;28;20372;-70
2021/08/14 03:21:04;;;;;;;8.00;4.60;;;;;;;;;;8259387;28;20463;-71
2021/08/14 03:25:10;;;;;;;10.35;4.90;;;;;;;;;;8257534;28;20462;-70
2021/08/14 03:29:15;;;;;;;12.00;4.97;;;;;;;;;;8257124;28;20348;-70
2021/08/14 03:33:20;;;;;;;13.68;5.43;;;;;;;;;;8258193;28;20355;-70
2021/08/14 03:37:25;;;;;;;9.45;4.97;;;;;;;;;;8258590;28;20383;-71
2021/08/14 03:41:30;;;;;;;11.68;4.60;;;;;;;;;;8257677;28;20361;-70
2021/08/14 03:45:35;;;;;;;11.25;4.78;;;;;;;;;;8256262;28;20475;-70
2021/08/14 03:49:40;;;;;;;6.18;4.65;;;;;;;;;;8256849;28;20341;-70
2021/08/14 03:53:45;;;;;;;8.73;5.07;;;;;;;;;;8258230;28;20049;-70
2021/08/14 03:57:51;;;;;;;8.65;4.90;;;;;;;;;;8240268;28;20045;-70
2021/08/14 04:01:56;;;;;;;8.88;5.20;;;;;;;;;;8257876;28;20045;-70
2021/08/14 04:06:01;;;;;;;12.65;5.20;;;;;;;;;;8255459;28;20045;-71
2021/08/14 04:10:07;;;;;;;6.00;4.30;;;;;;;;;;8257307;28;20053;-70
2021/08/14 04:14:13;;;;;;;14.80;4.80;;;;;;;;;;8240227;28;20371;-70
2021/08/14 04:18:18;;;;;;;8.05;4.50;;;;;;;;;;8256184;28;20465;-70
2021/08/14 04:22:23;;;;;;;8.05;4.82;;;;;;;;;;8263908;28;20045;-70
2021/08/14 04:26:30;;;;;;;7.20;4.18;;;;;;;;;;8246462;28;20452;-72
2021/08/14 04:30:36;;;;;;;8.68;4.50;;;;;;;;;;8263118;28;20463;-70
2021/08/14 04:34:41;;;;;;;10.45;5.05;;;;;;;;;;8263257;28;20033;-70
2021/08/14 04:38:48;;;;;;;6.38;4.70;;;;;;;;;;8262007;28;20488;-70
2021/08/14 04:42:54;;;;;;;6.85;4.55;;;;;;;;;;8263831;28;20045;-71
2021/08/14 04:47:01;;;;;;;12.90;5.00;;;;;;;;;;8263485;28;20057;-71
2021/08/14 04:51:06;;;;;;;16.20;4.80;;;;;;;;;;8262869;28;20364;-70
2021/08/14 04:55:11;;;;;;;11.00;4.80;;;;;;;;;;8262611;28;20391;-70
2021/08/14 04:59:17;;;;;;;16.20;5.30;;;;;;;;;;8262378;28;20071;-70
2021/08/14 05:03:22;;;;;;;12.90;4.60;;;;;;;;;;8243984;28;20484;-70
2021/08/14 05:07:27;;;;;;;10.43;5.18;;;;;;;;;;8262135;28;20376;-70
2021/08/14 05:11:33;;;;;;;8.68;4.82;;;;;;;;;;8244664;28;20489;-70
2021/08/14 05:15:38;;;;;;;8.30;4.50;;;;;;;;;;8262037;28;20472;-70
2021/08/14 05:19:44;;;;;;;9.85;4.70;;;;;;;;;;8261423;28;20041;-70
2021/08/14 05:23:49;;;;;;;5.65;4.50;;;;;;;;;;8261150;28;20045;-71
2021/08/14 05:27:55;;;;;;;13.43;5.22;;;;;;;;;;8243886;28;20440;-72
2021/08/14 05:32:00;;;;;;;9.13;5.22;;;;;;;;;;8259680;28;20059;-70
2021/08/14 05:36:08;;;;;;;11.88;6.43;;;;;;;;;;8261818;28;20365;-70
2021/08/14 05:40:14;;;;;;;8.82;5.80;;;;;;;;;;8259545;28;20460;-71
2021/08/14 05:44:20;;;;;;;9.07;6.05;;;;;;;;;;8244287;28;20460;-70
2021/08/14 05:48:25;;;;;;;9.02;5.90;;;;;;;;;;8259893;28;20482;-70
2021/08/14 05:52:30;;;;;;;9.07;5.70;;;;;;;;;;8263430;28;20491;-71
2021/08/14 05:56:36;;;;;;;7.78;5.22;;;;;;;;;;8261624;28;20064;-71
2021/08/14 06:00:41;;;;;;;7.72;5.32;;;;;;;;;;8260121;28;20459;-70
2021/08/14 06:04:46;;;;;;;14.95;6.53;;;;;;;;;;8243009;28;20336;-71
2021/08/14 06:08:52;;;;;;;7.93;5.80;;;;;;;;;;8260371;28;20049;-71
2021/08/14 06:12:58;;;;;;;8.55;5.30;;;;;;;;;;8260442;28;20471;-71
2021/08/14 06:17:04;;;;;;;8.65;5.50;;;;;;;;;;8241859;28;20375;-70
2021/08/14 06:21:11;;;;;;;8.07;5.30;;;;;;;;;;8260947;28;20072;-71
2021/08/14 06:25:17;;;;;;;7.30;5.03;;;;;;;;;;8259111;28;20044;-71
2021/08/14 06:29:22;;;;;;;8.95;5.47;;;;;;;;;;8257915;28;20407;-71
2021/08/14 06:33:27;;;;;;;7.45;4.78;;;;;;;;;;8260294;28;20514;-72
2021/08/14 06:37:32;;;;;;;8.50;4.20;;;;;;;;;;8257584;28;20415;-71
2021/08/14 06:41:37;;;;;;;16.15;5.40;;;;;;;;;;8258717;28;20356;-71
2021/08/14 06:45:42;;;;;;;9.73;5.65;;;;;;;;;;8257622;28;20095;-71
2021/08/14 06:49:47;;;;;;;8.90;5.35;;;;;;;;;;8259926;28;20037;-71
2021/08/14 06:53:53;;;;;;;15.77;5.60;;;;;;;;;;8260446;28;20383;-71
2021/08/14 06:57:58;;;;;;;9.20;4.70;;;;;;;;;;8257186;28;20399;-71
2021/08/14 07:02:04;;;;;;;8.50;4.78;;;;;;;;;;8258529;28;20490;-73
2021/08/14 07:06:09;;;;;;;30.00;6.40;;;;;;;;;;8241315;28;20468;-72
2021/08/14 07:10:15;;;;;;;7.47;4.70;;;;;;;;;;8240300;28;20402;-72
2021/08/14 07:14:20;;;;;;;10.15;4.55;;;;;;;;;;8242015;28;20352;-72
2021/08/14 07:18:26;;;;;;;7.80;4.55;;;;;;;;;;8257095;28;20379;-73
2021/08/14 07:22:31;;;;;;;12.18;4.38;;;;;;;;;;8258499;28;20072;-71
2021/08/14 07:26:38;;;;;;;9.23;4.88;;;;;;;;;;8256853;28;20442;-71
2021/08/14 07:30:43;;;;;;;6.90;4.07;;;;;;;;;;8257413;28;20362;-72
2021/08/14 07:34:48;;;;;;;8.70;4.15;;;;;;;;;;8255407;28;20482;-71
2021/08/14 07:38:53;;;;;;;6.30;3.45;;;;;;;;;;8239109;28;20487;-70
2021/08/14 07:42:59;;;;;;;7.75;4.35;;;;;;;;;;8239141;28;20451;-72
2021/08/14 07:47:04;;;;;;;6.50;4.20;;;;;;;;;;8257401;28;20475;-72
2021/08/14 07:51:10;;;;;;;7.40;4.43;;;;;;;;;;8256703;28;20049;-71
2021/08/14 07:55:23;;;;;;;7.70;3.88;;;;;;;;;;8256557;28;20483;-71
2021/08/14 07:59:28;;;;;;;6.73;4.43;;;;;;;;;;8240923;28;20360;-71
2021/08/14 08:03:34;;;;;;;11.90;4.25;;;;;;;;;;8255563;28;20763;-70
2021/08/14 08:07:43;;;;;;;6.68;3.88;;;;;;;;;;8258385;28;20053;-71
2021/08/14 08:11:49;;;;;;;8.27;4.47;;;;;;;;;;8255949;28;20417;-71
2021/08/14 08:15:53;;;;;;;8.32;3.85;;;;;;;;;;8256174;28;20468;-71
2021/08/14 08:19:58;;;;;;;5.70;3.80;;;;;;;;;;8255528;28;20517;-73
2021/08/14 08:24:04;;;;;;;8.27;3.90;;;;;;;;;;8255067;28;20491;-71
2021/08/14 08:28:09;;;;;;;17.15;4.45;;;;;;;;;;8238864;28;20452;-72
2021/08/14 08:32:14;;;;;;;9.35;4.78;;;;;;;;;;8256569;28;20363;-71
2021/08/14 08:36:19;;;;;;;7.82;4.10;;;;;;;;;;8256799;28;20367;-71
2021/08/14 08:40:24;;;;;;;11.73;4.28;;;;;;;;;;8256917;28;20356;-72
2021/08/14 08:44:29;;;;;;;8.60;4.72;;;;;;;;;;8256574;28;20391;-71
2021/08/14 08:48:35;;;;;;;6.90;4.50;;;;;;;;;;8256454;28;20472;-72
2021/08/14 08:52:44;;;;;;;7.57;4.23;;;;;;;;;;8239143;28;20355;-71
2021/08/14 08:56:48;;;;;;;6.50;3.75;;;;;;;;;;8255087;28;20787;-71
2021/08/14 09:00:53;;;;;;;11.02;4.57;;;;;;;;;;8256609;28;20367;-72
2021/08/14 09:05:12;;;;;;;12.88;4.03;;;;;;;;;;8256571;28;20525;-72
2021/08/14 09:09:28;;;;;;;7.72;4.18;;;;;;;;;;8262394;28;20367;-71
2021/08/14 09:13:34;;;;;;;8.95;3.88;;;;;;;;;;8261544;28;20145;-71
2021/08/14 09:17:39;;;;;;;15.98;4.70;;;;;;;;;;8243024;28;20484;-72
2021/08/14 09:21:44;;;;;;;9.57;4.65;;;;;;;;;;8261186;28;20368;-72
2021/08/14 09:25:55;;;;;;;8.73;4.93;;;;;;;;;;8260928;28;20057;-72
2021/08/14 09:30:00;;;;;;;16.10;5.57;;;;;;;;;;8244108;28;20468;-71
2021/08/14 09:34:20;;;;;;;12.23;5.70;;;;;;;;;;8262348;28;20045;-72
2021/08/14 09:38:43;;;;;;;11.20;6.15;;;;;;;;;;8262236;28;20456;-72
2021/08/14 09:42:52;;;;;;;10.95;5.63;;;;;;;;;;8245277;28;20352;-72
2021/08/14 09:46:58;;;;;;;17.00;5.75;;;;;;;;;;8260948;28;20332;-72
2021/08/14 09:51:04;;;;;;;10.15;5.13;;;;;;;;;;8242884;28;20056;-71
2021/08/14 09:55:24;;;;;;;12.63;5.25;;;;;;;;;;8260528;28;20352;-72
2021/08/14 09:59:29;;;;;;;16.65;4.72;;;;;;;;;;8258691;28;20341;-73
2021/08/14 10:03:39;;;;;;;13.57;5.20;;;;;;;;;;8259360;28;20067;-71
2021/08/14 10:07:45;;;;;;;6.82;4.55;;;;;;;;;;8262150;28;20410;-72
2021/08/14 10:11:51;;;;;;;10.00;4.43;;;;;;;;;;8243755;28;20048;-72
2021/08/14 10:15:56;;;;;;;;;;;;;;;;;;8243358;28;20460;-72
2021/08/14 10:20:02;;;;;;;9.07;4.60;;;;;;;;;;8258226;28;20386;-71
2021/08/14 10:24:08;;;;;;;8.30;5.32;;;;;;;;;;8240995;28;20380;-72
2021/08/14 10:28:15;;;;;;;9.20;5.17;;;;;;;;;;8241839;28;20354;-72
2021/08/14 10:32:32;;;;;;;9.63;5.18;;;;;;;;;;8257744;28;20476;-71
2021/08/14 10:36:40;;;;;;;10.98;5.40;;;;;;;;;;8258352;28;20372;-72
2021/08/14 10:41:02;;;;;;;13.50;4.80;;;;;;;;;;8241991;28;20342;-71
2021/08/14 10:45:17;;;;;;;11.68;4.97;;;;;;;;;;8259641;28;20466;-71
2021/08/14 10:49:40;;;;;;;7.03;3.67;;;;;;;;;;8241215;28;20391;-72
2021/08/14 10:53:45;;;;;;;4.85;3.80;;;;;;;;;;8258284;28;20371;-71
2021/08/14 10:57:51;;;;;;;5.72;3.28;;;;;;;;;;8258214;28;20343;-72
2021/08/14 11:01:56;;;;;;;6.75;3.80;;;;;;;;;;8258432;28;20053;-71
2021/08/14 11:06:26;;;;;;;5.23;3.33;;;;;;;;;;8241579;28;20439;-72
2021/08/14 11:10:40;;;;;;;7.22;4.85;;;;;;;;;;8259367;28;20379;-71
2021/08/14 11:14:48;;;;;;;11.93;4.75;;;;;;;;;;8258797;28;20490;-70
2021/08/14 11:19:00;;;;;;;8.75;4.53;;;;;;;;;;8223099;28;20376;-72
2021/08/14 11:23:26;;;;;;;10.70;4.40;;;;;;;;;;8238410;28;20189;-72
2021/08/14 11:27:36;;;;;;;9.68;4.50;;;;;;;;;;8225355;28;20482;-71
2021/08/14 11:31:41;;;;;;;9.57;5.13;;;;;;;;;;8240083;28;20412;-73
2021/08/14 11:35:47;;;;;;;7.57;4.37;;;;;;;;;;8240103;28;20360;-71
2021/08/14 11:40:05;;;;;;;6.40;4.07;;;;;;;;;;8227516;28;20966;-72
2021/08/14 11:44:10;;;;;;;6.30;3.78;;;;;;;;;;8225118;28;20484;-71
2021/08/14 11:48:17;;;;;;;11.98;4.32;;;;;;;;;;8240157;28;20472;-71
2021/08/14 11:52:25;;;;;;;9.10;4.70;;;;;;;;;;8223835;28;20491;-71
2021/08/14 11:56:31;;;;;;;19.48;7.55;;;;;;;;;;8238732;28;20071;-71
2021/08/14 12:00:38;;;;;;;;;;;;;;;;;;8225367;28;20484;-71
2021/08/14 12:04:45;;;;;;;12.32;5.80;;;;;;;;;;8224036;28;20280;-71
2021/08/14 12:08:50;;;;;;;11.13;6.07;;;;;;;;;;8239826;28;20487;-72
2021/08/14 12:13:02;;;;;;;16.90;7.47;;;;;;;;;;8222929;28;20399;-71
2021/08/14 12:17:07;;;;;;;8.98;4.45;;;;;;;;;;8226767;28;20072;-71
2021/08/14 12:21:13;;;;;;;14.90;5.13;;;;;;;;;;8258230;28;20456;-72
2021/08/14 12:25:27;;;;;;;16.08;6.35;;;;;;;;;;8257544;28;20471;-71
2021/08/14 12:29:32;;;;;;;14.13;5.90;;;;;;;;;;8240106;28;20456;-71
2021/08/14 12:33:57;;;;;;;8.07;5.20;;;;;;;;;;8256457;28;20375;-71
2021/08/14 12:38:08;;;;;;;8.65;4.82;;;;;;;;;;8254915;28;20613;-71
2021/08/14 12:42:35;;;;;;;24.38;5.15;;;;;;;;;;8260178;28;20071;-70
2021/08/14 12:46:40;;;;;;;11.63;5.43;;;;;;;;;;8263322;28;20371;-71
2021/08/14 12:50:46;;;;;;;9.25;5.05;;;;;;;;;;8263022;28;20463;-71
2021/08/14 12:54:56;;;;;;;23.83;8.23;;;;;;;;;;8262739;28;20419;-71
2021/08/14 12:59:01;;;;;;;7.65;4.53;;;;;;;;;;8245994;28;20321;-71
2021/08/14 13:03:08;;;;;;;8.15;5.10;;;;;;;;;;8261870;28;20060;-72
2021/08/14 13:07:13;;;;;;;7.97;4.78;;;;;;;;;;8261419;28;20380;-72
2021/08/14 13:11:18;;;;;;;9.80;5.05;;;;;;;;;;8263131;28;20456;-72
2021/08/14 13:15:25;;;;;;;8.23;5.32;;;;;;;;;;8244244;28;20398;-71
2021/08/14 13:19:31;;;;;;;10.40;4.87;;;;;;;;;;8261346;28;20345;-72
2021/08/14 13:23:36;;;;;;;6.13;4.65;;;;;;;;;;8263494;28;20821;-71
2021/08/14 13:27:44;;;;;;;10.82;4.32;;;;;;;;;;8262140;28;20456;-71
2021/08/14 13:31:50;;;;;;;7.90;4.40;;;;;;;;;;8245397;28;20341;-72
2021/08/14 13:35:55;;;;;;;8.05;4.47;;;;;;;;;;8251421;28;20460;-72
2021/08/14 13:40:00;;;;;;;8.90;4.35;;;;;;;;;;8260032;28;20407;-71
2021/08/14 13:44:06;;;;;;;6.90;4.33;;;;;;;;;;8262943;28;20455;-72
2021/08/14 13:48:12;;;;;;;11.27;4.70;;;;;;;;;;8260927;28;20977;-71
2021/08/14 13:52:18;;;;;;;5.88;3.95;;;;;;;;;;8242972;28;20406;-71
2021/08/14 13:56:25;;;;;;;9.15;4.20;;;;;;;;;;8227674;28;20484;-71
2021/08/14 14:00:30;;;;;;;12.00;5.00;;;;;;;;;;8261651;28;20367;-71
2021/08/14 14:04:35;;;;;;;8.88;4.47;;;;;;;;;;8258909;28;20449;-72
2021/08/14 14:08:41;;;;;;;7.97;4.80;;;;;;;;;;8261768;28;20379;-71
2021/08/14 14:12:47;;;;;;;8.93;5.05;;;;;;;;;;8260943;28;20371;-71
2021/08/14 14:16:54;;;;;;;6.75;4.35;;;;;;;;;;8260486;28;20472;-71
2021/08/14 14:20:57;;;;;;;9.55;4.75;;;;;;;;;;8228746;28;20049;-71
2021/08/14 14:25:03;;;;;;;6.75;4.47;;;;;;;;;;8225414;28;20468;-71
2021/08/14 14:29:09;;;;;;;6.67;4.53;;;;;;;;;;8229863;28;20353;-71
2021/08/14 14:33:15;;;;;;;6.85;4.28;;;;;;;;;;8208742;28;20053;-71
2021/08/14 14:37:20;;;;;;;10.23;4.57;;;;;;;;;;8225122;28;20049;-71
2021/08/14 14:41:26;;;;;;;6.35;4.65;;;;;;;;;;8225102;28;20491;-71
2021/08/14 14:45:32;;;;;;;11.38;4.03;;;;;;;;;;8226967;28;20534;-71
2021/08/14 14:49:39;;;;;;;8.20;3.95;;;;;;;;;;8228500;28;20336;-71
2021/08/14 14:53:44;;;;;;;6.65;4.25;;;;;;;;;;8225644;28;20469;-71
2021/08/14 14:57:50;;;;;;;8.38;5.40;;;;;;;;;;8225502;28;20075;-73
2021/08/14 15:01:55;;;;;;;5.43;4.20;;;;;;;;;;8226456;28;20373;-72
2021/08/14 15:06:01;;;;;;;8.02;4.70;;;;;;;;;;8224620;28;20484;-71
2021/08/14 15:10:06;;;;;;;6.90;4.15;;;;;;;;;;8225954;28;20361;-72
2021/08/14 15:14:11;;;;;;;8.80;4.38;;;;;;;;;;8228301;28;20045;-71
2021/08/14 15:18:16;;;;;;;8.88;4.53;;;;;;;;;;8235636;28;20080;-72
2021/08/14 15:22:20;;;;;;;5.65;4.05;;;;;;;;;;8238850;28;21549;-71
2021/08/14 15:26:24;;;;;;;5.93;4.13;;;;;;;;;;8254361;28;20479;-71
2021/08/14 15:30:30;;;;;;;7.90;4.32;;;;;;;;;;8256952;28;20498;-71
2021/08/14 15:34:34;;;;;;;6.03;4.15;;;;;;;;;;8256453;28;20317;-71
2021/08/14 15:38:39;;;;;;;9.00;4.43;;;;;;;;;;8244553;28;20037;-70
2021/08/14 15:42:45;;;;;;;9.95;5.00;;;;;;;;;;8239149;28;20345;-71
2021/08/14 15:46:51;;;;;;;8.00;3.90;;;;;;;;;;8215728;28;20367;-72
2021/08/14 15:50:55;;;;;;;5.97;3.70;;;;;;;;;;8239743;28;20483;-71
2021/08/14 15:54:59;;;;;;;7.57;3.97;;;;;;;;;;8237879;28;20487;-73
2021/08/14 15:59:04;;;;;;;9.13;3.83;;;;;;;;;;8227014;28;20474;-71
2021/08/14 16:03:08;;;;;;;6.43;3.88;;;;;;;;;;8240102;28;20403;-71
2021/08/14 16:07:12;;;;;;;12.32;4.45;;;;;;;;;;8223018;28;20440;-71
2021/08/14 16:11:16;;;;;;;9.20;4.03;;;;;;;;;;8248517;28;20359;-71
2021/08/14 16:15:21;;;;;;;8.02;3.75;;;;;;;;;;8226496;28;20353;-71
2021/08/14 16:19:26;;;;;;;6.18;4.45;;;;;;;;;;8228835;28;20445;-71
2021/08/14 16:23:30;;;;;;;11.68;3.70;;;;;;;;;;8243010;28;20476;-71
2021/08/14 16:27:33;;;;;;;8.95;4.20;;;;;;;;;;8239081;28;20322;-72
2021/08/14 16:31:39;;;;;;;6.88;3.97;;;;;;;;;;8241465;28;20513;-72
2021/08/14 16:35:43;;;;;;;6.45;4.18;;;;;;;;;;8238414;28;20045;-71
2021/08/14 16:39:48;;;;;;;6.18;3.90;;;;;;;;;;8245593;28;20395;-72
2021/08/14 16:43:53;;;;;;;10.55;6.00;;;;;;;;;;8245781;28;20487;-71
2021/08/14 16:47:59;;;;;;;6.65;4.57;;;;;;;;;;8262113;28;20337;-71
2021/08/14 16:52:04;;;;;;;19.15;4.95;;;;;;;;;;8242046;28;20360;-71
2021/08/14 16:56:09;;;;;;;7.80;4.82;;;;;;;;;;8227997;28;20490;-73
2021/08/14 17:00:13;;;;;;;17.20;5.25;;;;;;;;;;8246427;28;20065;-71
2021/08/14 17:04:17;;;;;;;11.05;5.15;;;;;;;;;;8211543;28;20452;-71
2021/08/14 17:08:22;;;;;;;10.57;6.38;;;;;;;;;;8227471;28;20469;-72
2021/08/14 17:12:26;;;;;;;10.50;5.35;;;;;;;;;;8227446;28;20064;-72
2021/08/14 17:16:32;;;;;;;16.60;6.65;;;;;;;;;;8225908;28;20041;-71
2021/08/14 17:20:36;;;;;;;11.02;5.53;;;;;;;;;;8239095;28;20376;-71
2021/08/14 17:24:41;;;;;;;8.82;5.95;;;;;;;;;;8232455;28;20368;-71
2021/08/14 17:28:46;;;;;;;9.50;6.32;;;;;;;;;;8234185;28;20349;-71
2021/08/14 17:32:49;;;;;;;11.02;5.63;;;;;;;;;;8251601;28;20437;-72
2021/08/14 17:36:54;;;;;;;11.15;5.18;;;;;;;;;;8255288;28;20336;-71
2021/08/14 17:41:00;;;;;;;12.02;5.20;;;;;;;;;;8243975;28;20455;-72
2021/08/14 17:45:04;;;;;;;21.58;9.30;;;;;;;;;;8259612;28;20376;-71
2021/08/14 17:49:08;;;;;;;151.57;81.00;;;;;;;;;;8257525;28;20372;-71
2021/08/14 17:53:14;;;;;;;112.95;60.92;;;;;;;;;;8259353;28;20483;-71
2021/08/14 17:57:19;;;;;;;31.52;17.15;;;;;;;;;;8257375;28;20333;-72
2021/08/14 18:01:25;;;;;;;11.48;6.57;;;;;;;;;;8257475;28;20479;-71
2021/08/14 18:05:30;;;;;;;17.85;9.07;;;;;;;;;;8241538;28;20471;-71
2021/08/14 18:09:36;;;;;;;19.40;11.02;;;;;;;;;;8243177;28;20415;-71
2021/08/14 18:13:42;;;;;;;29.63;16.13;;;;;;;;;;8238694;28;20079;-71
2021/08/14 18:17:47;;;;;;;43.08;22.25;;;;;;;;;;8254797;28;20362;-71
2021/08/14 18:21:53;;;;;;;54.28;23.75;;;;;;;;;;8239887;28;20383;-72
2021/08/14 18:26:00;;;;;;;;;;;;;;;;;;8239758;28;20486;-71
2021/08/14 18:30:07;;;;;;;28.90;14.38;;;;;;;;;;8260739;28;20335;-71
2021/08/14 18:34:12;;;;;;;18.95;11.32;;;;;;;;;;8258721;28;20383;-71
2021/08/14 18:38:18;;;;;;;21.73;11.68;;;;;;;;;;8259075;28;20582;-71
2021/08/14 18:42:23;;;;;;;40.70;20.38;;;;;;;;;;8214182;28;20394;-71
2021/08/14 18:46:29;;;;;;;53.45;31.73;;;;;;;;;;8226692;28;20600;-71
2021/08/14 18:50:36;;;;;;;42.80;25.30;;;;;;;;;;8226515;28;20461;-71
2021/08/14 18:54:43;;;;;;;32.78;19.88;;;;;;;;;;8223406;28;20486;-72
2021/08/14 18:58:47;;;;;;;23.58;15.55;;;;;;;;;;8227581;28;20445;-71
2021/08/14 19:02:52;;;;;;;22.33;12.23;;;;;;;;;;8227490;28;20499;-71
2021/08/14 19:06:58;;;;;;;18.70;12.45;;;;;;;;;;8227353;28;20456;-71
2021/08/14 19:11:04;;;;;;;20.33;12.70;;;;;;;;;;8225495;28;20350;-71
2021/08/14 19:15:11;;;;;;;21.52;13.05;;;;;;;;;;8223446;28;20492;-71
2021/08/14 19:19:17;;;;;;;24.55;12.52;;;;;;;;;;8224505;28;20380;-71
2021/08/14 19:23:25;;;;;;;17.15;9.32;;;;;;;;;;8225335;28;20468;-72
2021/08/14 19:27:30;;;;;;;12.35;8.00;;;;;;;;;;8226367;28;20488;-72
2021/08/14 19:31:37;;;;;;;15.60;8.40;;;;;;;;;;8240873;28;20342;-71
2021/08/14 19:35:44;;;;;;;16.90;9.18;;;;;;;;;;8226825;28;20365;-71
2021/08/14 19:39:48;;;;;;;17.65;10.73;;;;;;;;;;8227448;28;20059;-71
2021/08/14 19:43:53;;;;;;;21.90;12.65;;;;;;;;;;8223924;28;20053;-71
2021/08/14 19:48:00;;;;;;;18.98;11.35;;;;;;;;;;8224913;28;20371;-71
2021/08/14 19:52:05;;;;;;;19.30;12.00;;;;;;;;;;8223816;28;20377;-72
2021/08/14 19:56:10;;;;;;;23.27;13.75;;;;;;;;;;8224951;28;20495;-71
2021/08/14 20:00:16;;;;;;;35.95;19.77;;;;;;;;;;8224273;28;20352;-72
2021/08/14 20:04:22;;;;;;;31.85;17.83;;;;;;;;;;8224599;28;20502;-71
2021/08/14 20:08:28;;;;;;;27.67;13.85;;;;;;;;;;8225357;28;20366;-71
2021/08/14 20:12:33;;;;;;;30.52;16.88;;;;;;;;;;8225538;28;20484;-71
2021/08/14 20:16:38;;;;;;;28.80;16.38;;;;;;;;;;8225935;28;20371;-72
2021/08/14 20:20:43;;;;;;;20.08;12.20;;;;;;;;;;8255018;28;20360;-72
2021/08/14 20:24:48;;;;;;;18.10;10.27;;;;;;;;;;8256219;28;20372;-71
2021/08/14 20:28:56;;;;;;;16.02;9.63;;;;;;;;;;8256929;28;20456;-71
2021/08/14 20:33:01;;;;;;;25.50;13.10;;;;;;;;;;8239765;28;20045;-71
2021/08/14 20:37:06;;;;;;;25.45;14.00;;;;;;;;;;8257685;28;20506;-71
2021/08/14 20:41:12;;;;;;;33.60;17.63;;;;;;;;;;8256904;28;20365;-71
2021/08/14 20:45:18;;;;;;;23.02;14.45;;;;;;;;;;8256326;28;20379;-71
2021/08/14 20:49:23;;;;;;;21.20;11.30;;;;;;;;;;8270759;28;20483;-71
2021/08/14 20:53:29;;;;;;;12.43;8.25;;;;;;;;;;8255550;28;20433;-71
2021/08/14 20:57:34;;;;;;;15.20;8.35;;;;;;;;;;8257370;28;20391;-72
2021/08/14 21:01:40;;;;;;;16.05;8.50;;;;;;;;;;8258350;28;20468;-71
2021/08/14 21:05:45;;;;;;;16.70;9.80;;;;;;;;;;8276554;28;20471;-71
2021/08/14 21:09:51;;;;;;;23.65;12.98;;;;;;;;;;8263103;28;20353;-71
2021/08/14 21:13:57;;;;;;;15.57;9.38;;;;;;;;;;8254494;28;20371;-71
2021/08/14 21:18:03;;;;;;;17.83;8.57;;;;;;;;;;8276456;28;20057;-71
2021/08/14 21:22:08;;;;;;;14.10;8.52;;;;;;;;;;8262178;28;20379;-71
2021/08/14 21:26:13;;;;;;;13.82;8.88;;;;;;;;;;8260112;28;20368;-71
2021/08/14 21:30:18;;;;;;;13.57;8.55;;;;;;;;;;8277449;28;20360;-71
2021/08/14 21:34:24;;;;;;;11.18;7.97;;;;;;;;;;8261078;28;20072;-73
2021/08/14 21:38:29;;;;;;;19.67;8.75;;;;;;;;;;8262094;28;20464;-71
2021/08/14 21:42:37;;;;;;;17.85;9.43;;;;;;;;;;8262679;28;20337;-71
2021/08/14 21:46:42;;;;;;;16.65;8.57;;;;;;;;;;8243902;28;20387;-71
2021/08/14 21:50:47;;;;;;;16.38;8.68;;;;;;;;;;8275670;28;20468;-71
2021/08/14 21:54:53;;;;;;;14.80;9.07;;;;;;;;;;8261649;28;20506;-71
2021/08/14 21:58:58;;;;;;;14.35;8.90;;;;;;;;;;8260349;28;20067;-71
2021/08/14 22:03:06;;;;;;;12.90;8.73;;;;;;;;;;8275918;28;20502;-71
2021/08/14 22:07:11;;;;;;;13.90;9.00;;;;;;;;;;8261187;28;20371;-71
2021/08/14 22:11:17;;;;;;;15.45;9.60;;;;;;;;;;8260613;28;20475;-71
2021/08/14 22:15:22;;;;;;;12.77;8.60;;;;;;;;;;8274539;28;20387;-71
2021/08/14 22:19:28;;;;;;;15.02;8.65;;;;;;;;;;8261396;28;20063;-72
2021/08/14 22:23:34;;;;;;;13.65;8.63;;;;;;;;;;8276801;28;20472;-71
2021/08/14 22:27:40;;;;;;;20.97;8.70;;;;;;;;;;8260394;28;20377;-71
2021/08/14 22:31:45;;;;;;;15.48;8.90;;;;;;;;;;8275951;28;20041;-71
2021/08/14 22:35:50;;;;;;;13.38;8.10;;;;;;;;;;8261439;28;20444;-71
2021/08/14 22:39:56;;;;;;;13.45;8.07;;;;;;;;;;8274171;28;20470;-71
2021/08/14 22:44:01;;;;;;;14.68;8.43;;;;;;;;;;8259678;28;20460;-71
2021/08/14 22:48:06;;;;;;;14.75;9.13;;;;;;;;;;8241746;28;20364;-71
2021/08/14 22:52:12;;;;;;;12.82;8.18;;;;;;;;;;8274022;28;20472;-71
2021/08/14 22:56:17;;;;;;;13.35;8.85;;;;;;;;;;8259258;28;20368;-71
2021/08/14 23:00:25;;;;;;;14.23;8.50;;;;;;;;;;8275179;28;20463;-71
2021/08/14 23:04:30;;;;;;;12.02;7.70;;;;;;;;;;8258735;28;20364;-71
2021/08/14 23:08:36;;;;;;;15.57;9.32;;;;;;;;;;8259284;28;20368;-71
2021/08/14 23:12:42;;;;;;;17.20;8.35;;;;;;;;;;8273390;28;20063;-72
2021/08/14 23:16:49;;;;;;;15.13;9.38;;;;;;;;;;8260103;28;20337;-71
2021/08/14 23:20:55;;;;;;;12.25;8.80;;;;;;;;;;8272725;28;20376;-71
2021/08/14 23:25:00;;;;;;;12.85;8.75;;;;;;;;;;8273210;28;20340;-71
2021/08/14 23:29:07;;;;;;;12.00;8.55;;;;;;;;;;8258438;28;20411;-72
2021/08/14 23:33:14;;;;;;;15.47;9.07;;;;;;;;;;8260283;28;20071;-72
2021/08/14 23:37:19;;;;;;;14.90;7.95;;;;;;;;;;8257482;28;20459;-71
2021/08/14 23:41:26;;;;;;;15.45;9.32;;;;;;;;;;8256631;28;20371;-72
2021/08/14 23:45:31;;;;;;;12.60;8.02;;;;;;;;;;8241812;28;20463;-71
2021/08/14 23:49:36;;;;;;;12.20;8.30;;;;;;;;;;8257959;28;20368;-71
2021/08/14 23:53:41;;;;;;;18.33;8.27;;;;;;;;;;8258957;28;20499;-71
2021/08/14 23:57:46;;;;;;;12.35;8.55;;;;;;;;;;8272352;28;20348;-71
